Flight Track Log - Related Links

Times and Time Zones

All times are in EDT time to prevent confusion due to time zone crossing. See the SWA378 flight status page for this flight to view local times or setup timezone preferences in your user account.

Time Position Orientation Groundspeed Altitude Reporting Facility
EDT Latitude Longitude Course Direction KTS MPH feet Rate Location/Type
Tue 01:42:57 PM 33.9333 -118.4667 112° Southeast 181 208 1,700  Level Southern California TRACON
Tue 01:43:51 PM 33.8833 -118.5167 220° Southwest 240 276 3,100 1,800 Climbing Southern California TRACON
Tue 01:45:07 PM 33.8019 -118.5214 183° South 256 295 5,600 2,435 Climbing Los Angeles Center
Tue 01:46:09 PM 33.7244 -118.5219 180° South 273 314 8,700 2,419 Climbing Los Angeles Center
Tue 01:47:11 PM 33.6581 -118.4661 145° Southeast 307 353 10,600 2,323 Climbing Los Angeles Center
Tue 01:48:00 PM 33.5334 -118.2502 112° Southeast  Level FlightAware Approximate
Tue 01:48:13 PM 33.5831 -118.3556 129° Southeast 361 415 13,500  Level Los Angeles Center
Tue 01:49:15 PM 33.5311 -118.2447 119° Southeast 391 450 15,900 2,177 Climbing Los Angeles Center
Tue 01:50:17 PM 33.5094 -118.1419 104° East 405 466 18,000 2,352 Climbing Los Angeles Center
Tue 01:51:20 PM 33.4861 -117.9806 100° East 422 486 20,800 2,496 Climbing Los Angeles Center
Tue 01:52:22 PM 33.4389 -117.8178 109° East 434 499 23,200 2,081 Climbing Los Angeles Center
Tue 01:53:24 PM 33.3994 -117.6761 108° East 449 517 25,100 1,694 Climbing Los Angeles Center
Tue 01:54:26 PM 33.3861 -117.5214 96° East 470 541 26,700 1,500 Climbing Los Angeles Center
Tue 01:55:28 PM 33.3753 -117.3622 95° East 480 552 28,200 1,403 Climbing Los Angeles Center
Tue 01:56:30 PM 33.3636 -117.1992 95° East 493 567 29,600 1,548 Climbing Los Angeles Center
Tue 01:57:32 PM 33.3494 -117.0022 95° East 501 577 31,400 2,081 Climbing Los Angeles Center
Tue 01:58:34 PM 33.3381 -116.8406 95° East 494 568 33,900 1,776 Climbing Los Angeles Center
Tue 01:59:37 PM 33.3261 -116.6833 95° East 480 552 35,100 1,008 Climbing Los Angeles Center
Tue 02:00:39 PM 33.3144 -116.5264 95° East 474 545 36,000 726 Climbing Los Angeles Center
Tue 02:01:41 PM 33.3036 -116.3653 95° East 480 552 36,600 484 Climbing Los Angeles Center
Tue 02:02:43 PM 33.2894 -116.2025 96° East 486 559 37,000 194 Climbing Los Angeles Center
Tue 02:03:45 PM 33.2761 -116.0344 95° East 502 578 37,000  Level Los Angeles Center
Tue 02:04:47 PM 33.2594 -115.8358 96° East 500 575 37,000  Level Los Angeles Center
Tue 02:05:49 PM 33.2444 -115.6697 96° East 502 578 37,000  Level Los Angeles Center
Tue 02:06:51 PM 33.2306 -115.5036 96° East 502 578 37,000  Level Los Angeles Center
Tue 02:07:53 PM 33.2153 -115.3381 96° East 501 577 37,000  Level Los Angeles Center
Tue 02:08:56 PM 33.2136 -115.1706 91° East 505 581 37,000  Level Los Angeles Center
Tue 02:09:58 PM 33.2089 -115.0053 92° East 500 575 37,000  Level Los Angeles Center
Tue 02:11:00 PM 33.1997 -114.8094 93° East 493 567 37,000  Level Los Angeles Center
Tue 02:12:02 PM 33.1817 -114.6456 97° East 497 572 37,000  Level Los Angeles Center
Tue 02:13:04 PM 33.1656 -114.4836 97° East 493 567 37,000  Level Los Angeles Center
Tue 02:14:06 PM 33.1472 -114.3217 98° East 492 566 37,000  Level Los Angeles Center
Tue 02:15:08 PM 33.1236 -114.1603 100° East 493 567 37,000  Level Los Angeles Center
Tue 02:16:03 PM 33.1053 -114.0194 99° East 495 570 37,000  Level Albuquerque Center
Tue 02:17:04 PM 33.0789 -113.8244 99° East 497 572 37,000  Level Albuquerque Center
Tue 02:18:06 PM 33.0572 -113.6617 99° East 496 571 37,000  Level Albuquerque Center
Tue 02:19:08 PM 33.0353 -113.5003 99° East 495 570 37,000  Level Albuquerque Center
Tue 02:20:09 PM 33.0125 -113.3381 99° East 494 568 37,000  Level Albuquerque Center
Tue 02:21:11 PM 32.9894 -113.1761 100° East 495 570 37,000  Level Albuquerque Center
Tue 02:22:13 PM 32.9667 -113.0139 99° East 494 568 37,000  Level Albuquerque Center
Tue 02:23:14 PM 32.9431 -112.8511 100° East 495 570 37,000  Level Albuquerque Center
Tue 02:24:16 PM 32.9197 -112.6897 100° East 493 567 37,000  Level Albuquerque Center
Tue 02:25:18 PM 32.8958 -112.5300 100° East 490 564 37,000  Level Albuquerque Center
Tue 02:26:19 PM 32.8722 -112.3697 100° East 490 564 37,000  Level Albuquerque Center
Tue 02:27:21 PM 32.8492 -112.2075 100° East 490 564 37,000  Level Albuquerque Center
Tue 02:28:22 PM 32.8203 -112.0164 100° East 490 564 37,000  Level Albuquerque Center
Tue 02:29:24 PM 32.7967 -111.8553 100° East 496 571 37,000  Level Albuquerque Center
Tue 02:30:26 PM 32.7728 -111.6975 100° East 491 565 37,000  Level Albuquerque Center
Tue 02:31:27 PM 32.7483 -111.5394 100° East 490 564 37,000  Level Albuquerque Center
Tue 02:32:29 PM 32.7239 -111.3825 100° East 488 562 37,000  Level Albuquerque Center
Tue 02:33:30 PM 32.6978 -111.2283 101° East 482 555 37,000  Level Albuquerque Center
Tue 02:34:32 PM 32.6669 -111.0378 101° East 489 563 37,000  Level Albuquerque Center
Tue 02:35:34 PM 32.6411 -110.8794 101° East 491 565 37,000  Level Albuquerque Center
Tue 02:36:35 PM 32.6158 -110.7192 101° East 494 568 37,000  Level Albuquerque Center
Tue 02:37:38 PM 32.5889 -110.5583 101° East 498 573 37,000  Level Albuquerque Center
Tue 02:38:39 PM 32.5639 -110.3989 100° East 496 571 37,000  Level Albuquerque Center
Tue 02:39:40 PM 32.5342 -110.2161 101° East 499 574 37,000  Level Albuquerque Center
Tue 02:40:42 PM 32.5067 -110.0586 102° East 496 571 37,000  Level Albuquerque Center
Tue 02:41:43 PM 32.4814 -109.9017 101° East 493 567 37,000  Level Albuquerque Center
Tue 02:42:45 PM 32.4542 -109.7444 102° East 494 568 37,000  Level Albuquerque Center
Tue 02:43:47 PM 32.4194 -109.5533 102° East 502 578 37,000  Level Albuquerque Center
Tue 02:44:48 PM 32.3964 -109.4044 100° East 483 556 37,000  Level Albuquerque Center
Tue 02:45:50 PM 32.3700 -109.2508 101° East 480 552 37,000  Level Albuquerque Center
Tue 02:46:52 PM 32.3431 -109.0956 102° East 483 556 37,000  Level Albuquerque Center
Tue 02:47:53 PM 32.3144 -108.9333 102° East 496 571 37,000  Level Albuquerque Center
Tue 02:48:55 PM 32.2817 -108.7483 102° East 488 562 37,000  Level Albuquerque Center
Tue 02:49:57 PM 32.2533 -108.5914 102° East 491 565 37,000  Level Albuquerque Center
Tue 02:50:58 PM 32.2253 -108.4250 101° East 492 566 37,000  Level Albuquerque Center
Tue 02:52:00 PM 32.1969 -108.2672 102° East 494 568 37,000  Level Albuquerque Center
Tue 02:53:02 PM 32.1683 -108.1108 102° East 490 564 37,000  Level Albuquerque Center
Tue 02:54:03 PM 32.1397 -107.9558 102° East 488 562 37,000  Level Albuquerque Center
Tue 02:55:05 PM 32.1114 -107.7992 102° East 489 563 37,000  Level Albuquerque Center
Tue 02:56:07 PM 32.0808 -107.6456 103° East 487 560 37,000  Level Albuquerque Center
Tue 02:57:08 PM 32.0464 -107.4597 102° East 488 562 37,000 -49 Level Albuquerque Center
Tue 02:58:10 PM 32.0169 -107.3047 103° East 488 562 36,900  Descending Albuquerque Center
Tue 02:59:12 PM 31.9861 -107.1497 103° East 492 566 37,000 48 Climbing Albuquerque Center
Tue 03:00:14 PM 31.9572 -106.9922 102° East 497 572 37,000  Level Albuquerque Center
Tue 03:01:15 PM 31.9264 -106.8397 103° East 488 562 37,000  Level Albuquerque Center
Tue 03:02:17 PM 31.8967 -106.6856 103° East 485 558 37,000  Level Albuquerque Center
Tue 03:03:19 PM 31.8611 -106.5103 103° East 486 559 37,000  Level Albuquerque Center
Tue 03:04:21 PM 31.8328 -106.3539 102° East 489 563 37,000  Level Albuquerque Center
Tue 03:05:22 PM 31.7986 -106.2011 105° East 489 563 37,000  Level Albuquerque Center
Tue 03:06:24 PM 31.7586 -106.0511 107° East 483 556 37,000  Level Albuquerque Center
Tue 03:07:26 PM 31.7194 -105.8986 107° East 487 560 37,000  Level Albuquerque Center
Tue 03:08:28 PM 31.6736 -105.7142 106° East 491 565 37,000  Level Albuquerque Center
Tue 03:09:29 PM 31.6347 -105.5594 106° East 493 567 37,000  Level Albuquerque Center
Tue 03:10:31 PM 31.5961 -105.4056 106° East 492 566 37,000  Level Albuquerque Center
Tue 03:11:33 PM 31.5572 -105.2506 106° East 492 566 37,000  Level Albuquerque Center
Tue 03:12:35 PM 31.5172 -105.0944 107° East 496 571 37,000  Level Albuquerque Center
Tue 03:13:37 PM 31.4778 -104.9392 107° East 496 571 37,000  Level Albuquerque Center
Tue 03:14:38 PM 31.4375 -104.7847 107° East 495 570 37,000  Level Albuquerque Center
Tue 03:15:40 PM 31.3983 -104.6311 107° East 493 567 37,000  Level Albuquerque Center
Tue 03:16:42 PM 31.3497 -104.4461 107° East 494 568 37,000  Level Albuquerque Center
Tue 03:17:44 PM 31.3092 -104.2922 107° East 494 568 37,000  Level Albuquerque Center
Tue 03:18:46 PM 31.2669 -104.1378 108° East 496 571 37,000  Level Albuquerque Center
Tue 03:19:47 PM 31.2267 -103.9833 107° East 496 571 37,000  Level Albuquerque Center
Tue 03:20:49 PM 31.1858 -103.8300 107° East 495 570 37,000  Level Albuquerque Center
Tue 03:21:51 PM 31.1364 -103.6528 108° East 497 572 37,000  Level Albuquerque Center
Tue 03:22:53 PM 31.0942 -103.4997 108° East 497 572 37,000  Level Albuquerque Center
Tue 03:23:54 PM 31.0517 -103.3461 108° East 498 573 37,000  Level Albuquerque Center
Tue 03:24:56 PM 31.0092 -103.1925 108° East 500 575 37,000  Level Albuquerque Center
Tue 03:25:58 PM 30.9683 -103.0383 107° East 500 575 37,000  Level Albuquerque Center
Tue 03:27:00 PM 30.9261 -102.8822 107° East 505 581 37,000  Level Albuquerque Center
Tue 03:28:01 PM 30.8867 -102.7264 106° East 506 582 37,000  Level Albuquerque Center
Tue 03:29:04 PM 30.8386 -102.5403 107° East 502 578 37,000  Level Houston Center
Tue 03:30:06 PM 30.7989 -102.3867 107° East 502 578 37,000  Level Houston Center
Tue 03:31:08 PM 30.7581 -102.2336 107° East 501 577 37,000  Level Houston Center
Tue 03:32:10 PM 30.7194 -102.0806 106° East 499 574 37,000  Level Houston Center
Tue 03:33:13 PM 30.6703 -101.8958 107° East 502 578 37,000  Level Houston Center
Tue 03:34:15 PM 30.6283 -101.7461 108° East 494 568 37,000  Level Houston Center
Tue 03:35:17 PM 30.5989 -101.5964 103° East 495 570 37,000  Level Houston Center
Tue 03:36:19 PM 30.6075 -101.4342 86° East 500 575 37,000  Level Houston Center
Tue 03:37:21 PM 30.6117 -101.2736 88° East 499 574 37,000  Level Houston Center
Tue 03:38:23 PM 30.6158 -101.0817 89° East 498 573 37,000  Level Houston Center
Tue 03:39:25 PM 30.6194 -100.9183 88° East 502 578 37,000  Level Houston Center
Tue 03:40:27 PM 30.6242 -100.7556 88° East 501 577 37,000  Level Houston Center
Tue 03:41:30 PM 30.6275 -100.5942 89° East 500 575 37,000  Level Houston Center
Tue 03:42:32 PM 30.6317 -100.4308 88° East 502 578 37,000  Level Houston Center
Tue 03:43:34 PM 30.6339 -100.2697 89° East 498 573 37,000  Level Houston Center
Tue 03:45:00 PM 30.6002 -100.0600 101° East  Level FlightAware Approximate
Tue 03:45:38 PM 30.6414 -99.9136 101° East 501 577 37,000  Level Houston Center
Tue 03:46:40 PM 30.6389 -99.7536 91° East 496 571 37,000  Level Houston Center
Tue 03:47:42 PM 30.6278 -99.5894 94° East 505 581 37,000  Level Houston Center
Tue 03:48:45 PM 30.6181 -99.4292 94° East 500 575 37,000  Level Houston Center
Tue 03:49:47 PM 30.6078 -99.2683 94° East 500 575 37,000  Level Houston Center
Tue 03:50:49 PM 30.5992 -99.1008 93° East 498 573 37,000  Level Houston Center
Tue 03:51:51 PM 30.5903 -98.9378 94° East 502 578 37,000  Level Houston Center
Tue 03:52:53 PM 30.5822 -98.7475 93° East 503 579 37,000  Level Houston Center
Tue 03:53:55 PM 30.5756 -98.5831 93° East 506 582 37,000  Level Houston Center
Tue 03:54:57 PM 30.5697 -98.4203 92° East 504 580 37,000  Level Houston Center
Tue 03:55:59 PM 30.5617 -98.2569 93° East 503 579 37,000  Level Houston Center
Tue 03:57:02 PM 30.5644 -98.0925 89° East 505 581 37,000  Level Houston Center
Tue 03:58:04 PM 30.5789 -97.9286 84° East 508 585 37,000  Level Houston Center
Tue 03:59:06 PM 30.5964 -97.7397 84° East 503 579 37,000  Level Houston Center
Tue 04:00:08 PM 30.6108 -97.5783 84° East 502 578 37,000  Level Houston Center
Tue 04:01:10 PM 30.6242 -97.4172 84° East 502 578 37,000  Level Houston Center
Tue 04:02:12 PM 30.6381 -97.2567 84° East 502 578 37,000 145 Level Houston Center
Tue 04:03:14 PM 30.6525 -97.0933 84° East 510 587 37,300 672 Climbing Houston Center
Tue 04:04:17 PM 30.6686 -96.8989 84° East 516 594 38,400 816 Climbing Houston Center
Tue 04:05:19 PM 30.6822 -96.7325 85° East 520 598 39,000 290 Climbing Houston Center
Tue 04:06:21 PM 30.6958 -96.5672 84° East 513 590 39,000  Level Houston Center
Tue 04:07:23 PM 30.7094 -96.4025 84° East 511 588 39,000  Level Houston Center
Tue 04:08:25 PM 30.7219 -96.2381 85° East 511 588 39,000  Level Houston Center
Tue 04:09:27 PM 30.7344 -96.0739 85° East 509 586 39,000  Level Houston Center
Tue 04:10:29 PM 30.7453 -95.9089 86° East 501 577 39,000  Level Houston Center
Tue 04:11:32 PM 30.7594 -95.7164 85° East 499 574 39,000  Level Houston Center
Tue 04:12:34 PM 30.7722 -95.5553 85° East 500 575 39,000  Level Houston Center
Tue 04:13:36 PM 30.7856 -95.3936 84° East 504 580 39,000  Level Houston Center
Tue 04:14:38 PM 30.7981 -95.2322 85° East 506 582 39,000  Level Houston Center
Tue 04:15:40 PM 30.8089 -95.0692 86° East 508 585 39,000  Level Houston Center
Tue 04:16:45 PM 30.8206 -94.9067 85° East 509 586 39,000  Level Houston Center
Tue 04:17:44 PM 30.8331 -94.7144 86° East 503 579 39,000  Level Houston Center
Tue 04:18:47 PM 30.8442 -94.5536 85° East 503 579 39,000  Level Houston Center
Tue 04:19:49 PM 30.8547 -94.3939 86° East 501 577 39,000  Level Houston Center
Tue 04:20:51 PM 30.8653 -94.2344 86° East 498 573 39,000  Level Houston Center
Tue 04:21:53 PM 30.8739 -94.0775 86° East 493 567 39,000  Level Houston Center
Tue 04:22:55 PM 30.8875 -93.8817 85° East 498 573 39,000  Level Houston Center
Tue 04:23:57 PM 30.8967 -93.7225 86° East 496 571 39,000  Level Houston Center
Tue 04:24:59 PM 30.9061 -93.5622 86° East 494 568 39,000  Level Houston Center
Tue 04:26:01 PM 30.9142 -93.4042 87° East 489 563 39,000  Level Houston Center
Tue 04:27:04 PM 30.9236 -93.2444 86° East 492 566 39,000  Level Houston Center
Tue 04:28:06 PM 30.9331 -93.0828 86° East 497 572 39,000  Level Houston Center
Tue 04:29:08 PM 30.9408 -92.8983 87° East 495 570 39,000  Level Houston Center
Tue 04:30:10 PM 30.9486 -92.7394 87° East 495 570 39,000  Level Houston Center
Tue 04:31:12 PM 30.9561 -92.5811 87° East 495 570 39,000  Level Houston Center
Tue 04:32:14 PM 30.9644 -92.4225 86° East 496 571 39,000  Level Houston Center
Tue 04:33:16 PM 30.9739 -92.2336 87° East 494 568 39,000  Level Houston Center
Tue 04:34:18 PM 30.9822 -92.0767 86° East 491 565 39,000  Level Houston Center
Tue 04:35:21 PM 30.9883 -91.9211 87° East 486 559 39,000  Level Houston Center
Tue 04:36:23 PM 30.9967 -91.7647 86° East 486 559 39,000  Level Houston Center
Tue 04:37:25 PM 31.0025 -91.6092 87° East 485 558 39,000  Level Houston Center
Tue 04:38:27 PM 31.0114 -91.4222 87° East 483 556 39,000  Level Houston Center
Tue 04:39:29 PM 31.0164 -91.2683 88° East 485 558 39,000  Level Houston Center
Tue 04:40:31 PM 31.0231 -91.1128 87° East 482 555 39,000  Level Houston Center
Tue 04:41:33 PM 31.0283 -90.9569 88° East 482 555 39,000  Level Houston Center
Tue 04:42:35 PM 31.0350 -90.8028 87° East 478 550 39,000  Level Houston Center
Tue 04:43:38 PM 31.0406 -90.6178 88° East 476 548 39,000  Level Houston Center
Tue 04:44:40 PM 31.0469 -90.4647 87° East 473 544 39,000  Level Houston Center
Tue 04:45:42 PM 31.0519 -90.3117 88° East 473 544 39,000  Level Houston Center
Tue 04:46:44 PM 31.0567 -90.1597 88° East 470 541 39,000  Level Houston Center
Tue 04:47:46 PM 31.0608 -90.0081 88° East 467 537 39,000  Level Houston Center
Tue 04:48:48 PM 31.0792 -89.8581 82° East 466 536 39,000  Level Houston Center
Tue 04:49:50 PM 31.1106 -89.7097 76° East 468 539 39,000  Level Houston Center
Tue 04:50:53 PM 31.1458 -89.5322 77° East 468 539 39,000  Level Houston Center
Tue 04:51:55 PM 31.1775 -89.3842 76° East 469 540 39,000  Level Houston Center
Tue 04:52:57 PM 31.2072 -89.2361 77° East 468 539 39,000  Level Houston Center
Tue 04:53:59 PM 31.2358 -89.0853 77° East 473 544 39,000  Level Houston Center
Tue 04:55:01 PM 31.2664 -88.9311 77° East 464 534 39,000  Level Houston Center
Tue 04:56:03 PM 31.2950 -88.7808 77° East 472 543 39,000  Level Houston Center
Tue 04:57:05 PM 31.3239 -88.6333 77° East 465 535 39,000  Level Houston Center
Tue 04:58:07 PM 31.3536 -88.4844 77° East 466 536 39,000  Level Houston Center
Tue 04:59:09 PM 31.3894 -88.3053 77° East 468 539 39,000 -480 Level Houston Center
Tue 05:00:12 PM 31.4178 -88.1556 77° East 467 537 38,000 -912 Descending Houston Center
Tue 05:01:14 PM 31.4747 -88.0219 63° Northeast 464 534 37,100 -905 Descending Houston Center
Tue 05:02:18 PM 31.5447 -87.8969 57° Northeast 459 528 36,100 -919 Descending Houston Center
Tue 05:03:18 PM 31.6172 -87.7717 56° Northeast 463 533 35,200 -767 Descending Houston Center
Tue 05:03:44 PM 31.6519 -87.7225 50° Northeast 455 524 35,000 -140 Descending Atlanta Center
Tue 05:04:44 PM 31.7225 -87.5961 57° Northeast 455 524 35,000  Level Atlanta Center
Tue 05:05:44 PM 31.7950 -87.4719 55° Northeast 455 524 35,000  Level Atlanta Center
Tue 05:06:44 PM 31.8650 -87.3472 57° Northeast 455 524 35,000  Level Atlanta Center
Tue 05:07:44 PM 31.9397 -87.2081 58° Northeast 455 524 35,000 -400 Level Atlanta Center
Tue 05:08:44 PM 32.0119 -87.0808 56° Northeast 455 524 34,200 -900 Descending Atlanta Center
Tue 05:09:44 PM 32.0836 -86.9583 55° Northeast 450 518 33,200 -1,000 Descending Atlanta Center
Tue 05:10:44 PM 32.1511 -86.8403 56° Northeast 450 518 32,200 -1,000 Descending Atlanta Center
Tue 05:11:44 PM 32.2206 -86.7197 56° Northeast 450 518 31,200 -950 Descending Atlanta Center
Tue 05:12:44 PM 32.2853 -86.6186 53° Northeast 439 505 30,300 -1,000 Descending Atlanta Center
Tue 05:13:44 PM 32.3461 -86.4975 59° Northeast 432 497 29,200 -650 Descending Atlanta Center
Tue 05:14:44 PM 32.4072 -86.3686 61° Northeast 422 486 29,000 -100 Descending Atlanta Center
Tue 05:15:44 PM 32.4742 -86.2497 56° Northeast 416 479 29,000  Level Atlanta Center
Tue 05:16:44 PM 32.5386 -86.1456 54° Northeast 423 487 29,000 -500 Level Atlanta Center
Tue 05:17:44 PM 32.6008 -86.0311 57° Northeast 428 493 28,000 -1,000 Descending Atlanta Center
Tue 05:18:44 PM 32.6611 -85.9189 57° Northeast 417 480 27,000 -1,000 Descending Atlanta Center
Tue 05:19:44 PM 32.7211 -85.8092 57° Northeast 405 466 26,000 -800 Descending Atlanta Center
Tue 05:20:44 PM 32.7875 -85.6894 57° Northeast 411 473 25,400 -1,100 Descending Atlanta Center
Tue 05:21:44 PM 32.8581 -85.5622 57° Northeast 436 502 23,800 -2,150 Descending Atlanta Center
Tue 05:22:44 PM 32.9242 -85.4394 57° Northeast 444 511 21,100 -2,650 Descending Atlanta Center
Tue 05:23:44 PM 32.9881 -85.3192 58° Northeast 439 505 18,500 -2,850 Descending Atlanta Center
Tue 05:24:44 PM 33.0603 -85.1964 55° Northeast 419 482 15,400 -2,100 Descending Atlanta Center
Tue 05:25:44 PM 33.1322 -85.0981 49° Northeast 402 463 14,300 -700 Descending Atlanta Center
Tue 05:26:44 PM 33.1997 -85.0094 48° Northeast 373 429 14,000 -793 Descending Atlanta Center
Tue 05:28:38 PM 33.3333 -84.8333 48° Northeast 370 426 12,000 -714 Descending Atlanta TRACON
Tue 05:29:32 PM 33.4000 -84.7500 46° Northeast 367 422 12,000  Level Atlanta TRACON
Tue 05:30:32 PM 33.4667 -84.6500 51° Northeast 352 405 12,000 -50 Level Atlanta TRACON
Tue 05:31:32 PM 33.5167 -84.5833 48° Northeast 287 330 11,900 -476 Descending Atlanta TRACON
Tue 05:32:38 PM 33.5500 -84.5000 64° Northeast 262 302 11,000 -1,190 Descending Atlanta TRACON
Tue 05:33:38 PM 33.5500 -84.4167 90° East 261 300 9,400 -1,579 Descending Atlanta TRACON
Tue 05:34:32 PM 33.5333 -84.3333 103° East 247 284 8,000 -1,316 Descending Atlanta TRACON
Tue 05:35:32 PM 33.5500 -84.2500 76° East 232 267 6,900 -1,150 Descending Atlanta TRACON
Tue 05:36:32 PM 33.5500 -84.1833 90° East 207 238 5,700 -1,250 Descending Atlanta TRACON
Tue 05:37:32 PM 33.5500 -84.1167 90° East 203 234 4,400 -900 Descending Atlanta TRACON
Tue 05:38:32 PM 33.6000 -84.1167 360° North 193 222 3,900 -429 Descending Atlanta TRACON
Tue 05:39:38 PM 33.6333 -84.1833 301° West 186 214 3,500 -333 Descending Atlanta TRACON
Tue 05:40:38 PM 33.6333 -84.2333 270° West 185 213 3,200 -350 Descending Atlanta TRACON
Tue 05:41:38 PM 33.6333 -84.3000 270° West 182 209 2,800 -632 Descending Atlanta TRACON
Tue 05:42:32 PM 33.6333 -84.3500 270° West 179 206 2,000 -889 Descending Atlanta TRACON
Tue 05:44:00 PM 33.6333 -84.4167 292° West  Level FlightAware Approximate
Tue 05:51:00 PM 33.6367 -84.4279 292° West  Level Estimated
Tue 05:52:00 PM 33.6367 -84.4279 292° West  Level Estimated

Login

Don't have an account? Register now (free) for customized features, flight alerts, and more!